Portada
METAR-TAF:

METAR-TAF

Aeropuertos :

Aeropuerto de Kōbe

Kōbe, Japón

latitud: 34-37-58N, longitud: 135-13-26E, altitud: 7 m

Observación

El informe se hizo hace 58 minutos, a las 05:00 UTC
Viento 7 kt del este-sureste, variando entre este y sur-sureste
Temperatura 13°C
Humedad 51%
Presión 1022 hPa
Visibilidad 10 km o más
Escasas nubes a una altura de 3000 ft

METAR: RJBE 040500Z 12007KT 080V160 9999 FEW030 13/03 Q1022

Hora: 14:58 (05:58 UTC)


TAF: falta

Observaciones y pronósticos meteorológicos de más de 4000 aeropuertos (mensajes METAR y TAF).

Los puntos amarillos y rojos representan las estaciones disponibles.

Ponga el ratón en el punto deseado para ver el nombre de la estación.

Haga clic para ver las observaciones y los pronósticos meteorológicos.

Para cambiar el mapa : haga clic en los botones verdes con una cruz de color negro para hacer un zoom, en el botón verde con un guión para alejar o en las flechas verdes para mapas adyacentes.


METAR-TAF: